createdAt,value
2023-01-07T00:00:25.793Z,100642.39
2023-01-07T00:01:30.961Z,100634.56
2023-01-07T00:02:32.951Z,100646.09
2023-01-07T00:03:35.729Z,100651.16
2023-01-07T00:04:38.598Z,100644.59
2023-01-07T00:05:40.605Z,100653.22
2023-01-07T00:06:44.769Z,100658.41
2023-01-07T00:07:46.827Z,100658.52
2023-01-07T00:08:50.838Z,100655.31
2023-01-07T00:09:53.055Z,100650.25
2023-01-07T00:10:55.095Z,100660.61
2023-01-07T00:11:57.702Z,100654.79
2023-01-07T00:13:00.025Z,100657.27
2023-01-07T00:14:04.854Z,100650.30
2023-01-07T00:15:09.136Z,100646.88
2023-01-07T00:16:14.659Z,100650.34
2023-01-07T00:17:17.943Z,100658.70
2023-01-07T00:18:20.795Z,100647.63
2023-01-07T00:19:23.729Z,100653.45
2023-01-07T00:20:26.028Z,100658.64
2023-01-07T00:21:29.560Z,100654.43
2023-01-07T00:22:31.720Z,100662.08
2023-01-07T00:23:36.107Z,100655.36
2023-01-07T00:24:38.357Z,100655.36
2023-01-07T00:25:40.324Z,100646.61
2023-01-07T00:26:42.660Z,100653.50
2023-01-07T00:27:44.938Z,100650.12
2023-01-07T00:28:50.147Z,100645.85
2023-01-07T00:29:52.303Z,100657.89
2023-01-07T00:31:03.399Z,100652.08
2023-01-07T00:32:06.165Z,100647.02
2023-01-07T00:33:11.049Z,100643.78
2023-01-07T00:34:14.157Z,100653.22
2023-01-07T00:35:25.103Z,100651.02
2023-01-07T00:36:33.285Z,100646.14
2023-01-07T00:37:51.251Z,100651.48
2023-01-07T00:38:58.398Z,100653.35
2023-01-07T00:40:06.349Z,100658.64
2023-01-07T00:41:09.621Z,100669.67
2023-01-07T00:42:30.557Z,100663.25
2023-01-07T00:43:33.638Z,100669.20
2023-01-07T00:44:37.299Z,100673.14
2023-01-07T00:45:39.359Z,100671.52
2023-01-07T00:46:42.580Z,100675.83
2023-01-07T00:47:44.837Z,100670.77
2023-01-07T00:48:47.616Z,100685.05
2023-01-07T00:49:50.165Z,100673.73
2023-01-07T00:50:54.588Z,100683.31
2023-01-07T00:51:56.758Z,100683.85
2023-01-07T00:53:00.756Z,100680.09
2023-01-07T00:54:03.413Z,100689.78
2023-01-07T00:55:06.835Z,100690.91
2023-01-07T00:56:11.339Z,100683.62
2023-01-07T00:57:17.397Z,100691.59
2023-01-07T00:58:22.512Z,100678.33
2023-01-07T00:59:24.937Z,100685.28
2023-01-07T01:00:27.809Z,100680.03
2023-01-07T01:01:32.099Z,100683.86
2023-01-07T01:02:35.790Z,100685.84
2023-01-07T01:03:39.203Z,100680.30
2023-01-07T01:04:41.349Z,100686.45
2023-01-07T01:05:43.388Z,100680.64
2023-01-07T01:06:46.071Z,100685.05
2023-01-07T01:07:48.719Z,100679.05
2023-01-07T01:08:51.237Z,100671.32
2023-01-07T01:09:53.878Z,100675.39
2023-01-07T01:10:56.312Z,100669.67
2023-01-07T01:11:58.209Z,100681.29
2023-01-07T01:13:02.219Z,100666.77
2023-01-07T01:14:04.902Z,100666.77
2023-01-07T01:15:11.831Z,100681.16
2023-01-07T01:16:17.490Z,100677.13
2023-01-07T01:17:20.692Z,100673.00
2023-01-07T01:18:22.969Z,100689.13
2023-01-07T01:19:25.046Z,100687.44
2023-01-07T01:20:27.431Z,100689.92
2023-01-07T01:21:31.172Z,100687.90
2023-01-07T01:22:33.714Z,100694.18
2023-01-07T01:23:36.120Z,100693.84
2023-01-07T01:24:38.215Z,100696.46
2023-01-07T01:25:40.247Z,100700.89
2023-01-07T01:26:42.772Z,100703.61
2023-01-07T01:27:44.923Z,100692.75
2023-01-07T01:28:47.204Z,100703.16
2023-01-07T01:29:49.845Z,100698.05
2023-01-07T01:30:55.862Z,100691.70
2023-01-07T01:32:00.584Z,100691.70
2023-01-07T01:33:03.616Z,100695.41
2023-01-07T01:34:06.132Z,100697.20
2023-01-07T01:35:09.588Z,100701.66
2023-01-07T01:36:12.950Z,100693.19
2023-01-07T01:37:16.833Z,100686.64
2023-01-07T01:38:19.631Z,100698.58
2023-01-07T01:39:23.506Z,100681.85
2023-01-07T01:40:28.946Z,100689.55
2023-01-07T01:41:32.211Z,100683.92
2023-01-07T01:42:36.026Z,100676.47
2023-01-07T01:43:41.090Z,100685.70
2023-01-07T01:44:52.599Z,100661.84
2023-01-07T01:46:00.476Z,100673.47
2023-01-07T01:47:09.290Z,100680.73
2023-01-07T01:48:11.969Z,100676.70
2023-01-07T01:49:23.691Z,100681.88
2023-01-07T01:50:35.550Z,100676.58
2023-01-07T01:51:42.491Z,100691.89
2023-01-07T01:52:57.439Z,100683.97
2023-01-07T01:54:03.576Z,100680.59
2023-01-07T01:55:09.522Z,100678.80
2023-01-07T01:56:16.247Z,100679.42
2023-01-07T01:57:21.198Z,100680.03
2023-01-07T01:58:33.472Z,100679.14
2023-01-07T01:59:40.010Z,100688.35
2023-01-07T02:00:44.462Z,100685.53
2023-01-07T02:01:47.306Z,100684.31
2023-01-07T02:02:54.114Z,100683.92
2023-01-07T02:03:57.075Z,100686.22
2023-01-07T02:05:00.593Z,100693.46
2023-01-07T02:06:03.669Z,100695.19
2023-01-07T02:07:12.258Z,100693.55
2023-01-07T02:08:18.847Z,100693.04
2023-01-07T02:09:21.026Z,100691.09
2023-01-07T02:10:25.136Z,100690.00
2023-01-07T02:11:37.111Z,100681.46
2023-01-07T02:13:02.706Z,100686.41
2023-01-07T02:14:24.460Z,100687.59
2023-01-07T02:15:52.985Z,100693.59
2023-01-07T02:17:11.075Z,100691.23
2023-01-07T02:18:36.744Z,100695.00
2023-01-07T02:20:11.342Z,100689.88
2023-01-07T02:21:39.121Z,100690.77
2023-01-07T02:22:50.982Z,100691.98
2023-01-07T02:24:16.812Z,100684.53
2023-01-07T02:25:49.979Z,100691.89
2023-01-07T02:26:55.863Z,100690.45
2023-01-07T02:28:17.167Z,100691.33
2023-01-07T02:29:31.960Z,100691.89
2023-01-07T02:30:46.844Z,100679.23
2023-01-07T02:31:58.840Z,100689.59
2023-01-07T02:33:21.693Z,100679.95
2023-01-07T02:34:43.072Z,100686.36
2023-01-07T02:36:07.415Z,100681.03
2023-01-07T02:37:20.603Z,100688.98
2023-01-07T02:38:41.503Z,100683.69
2023-01-07T02:41:03.970Z,100678.08
2023-01-07T02:42:24.826Z,100683.08
2023-01-07T02:43:33.907Z,100683.52
2023-01-07T02:44:43.446Z,100683.33
2023-01-07T02:45:51.763Z,100688.85
2023-01-07T02:47:10.393Z,100683.47
2023-01-07T02:48:15.253Z,100689.39
2023-01-07T02:49:18.356Z,100692.50
2023-01-07T02:50:22.001Z,100689.44
2023-01-07T02:51:34.524Z,100691.60
2023-01-07T02:52:37.463Z,100690.34
2023-01-07T02:53:43.025Z,100693.50
2023-01-07T02:54:58.015Z,100688.48
2023-01-07T02:56:16.022Z,100682.02
2023-01-07T02:57:31.162Z,100693.55
2023-01-07T02:58:52.370Z,100691.50
2023-01-07T03:00:18.265Z,100691.80
2023-01-07T03:01:55.015Z,100698.80
2023-01-07T03:03:21.964Z,100704.00
2023-01-07T03:05:01.342Z,100694.94
2023-01-07T03:06:26.920Z,100696.80
2023-01-07T03:07:48.054Z,100701.11
2023-01-07T03:09:12.329Z,100695.23
2023-01-07T03:10:27.784Z,100700.27
2023-01-07T03:11:54.826Z,100697.65
2023-01-07T03:13:00.696Z,100702.09
2023-01-07T03:14:06.908Z,100709.64
2023-01-07T03:15:15.940Z,100709.56
2023-01-07T03:16:21.908Z,100705.55
2023-01-07T03:17:28.020Z,100709.31
2023-01-07T03:18:36.553Z,100702.94
2023-01-07T03:19:42.381Z,100701.73
2023-01-07T03:20:49.163Z,100706.93
2023-01-07T03:21:54.015Z,100712.21
2023-01-07T03:22:57.847Z,100709.88
2023-01-07T03:24:01.750Z,100711.29
2023-01-07T03:25:07.284Z,100704.39
2023-01-07T03:26:13.984Z,100701.09
2023-01-07T03:27:20.292Z,100711.89
2023-01-07T03:28:27.305Z,100716.36
2023-01-07T03:29:32.622Z,100708.75
2023-01-07T03:30:38.081Z,100704.39
2023-01-07T03:31:43.846Z,100709.66
2023-01-07T03:32:56.283Z,100708.98
2023-01-07T03:34:10.907Z,100712.98
2023-01-07T03:35:13.596Z,100709.26
2023-01-07T03:36:21.503Z,100713.30
2023-01-07T03:37:26.322Z,100709.94
2023-01-07T03:38:30.285Z,100704.02
2023-01-07T03:39:38.958Z,100710.23
2023-01-07T03:40:41.845Z,100707.66
2023-01-07T03:42:03.156Z,100711.20
2023-01-07T03:43:14.631Z,100705.20
2023-01-07T03:44:18.606Z,100707.95
2023-01-07T03:45:24.997Z,100712.56
2023-01-07T03:46:29.175Z,100708.67
2023-01-07T03:47:31.697Z,100709.71
2023-01-07T03:48:33.820Z,100708.95
2023-01-07T03:49:37.045Z,100715.13
2023-01-07T03:50:39.658Z,100708.11
2023-01-07T03:51:42.078Z,100705.84
2023-01-07T03:52:45.300Z,100713.84
2023-01-07T03:53:47.568Z,100715.69
2023-01-07T03:54:49.798Z,100714.17
2023-01-07T03:55:52.977Z,100706.91
2023-01-07T03:56:55.194Z,100707.11
2023-01-07T03:57:57.446Z,100705.97
2023-01-07T03:59:00.392Z,100705.77
2023-01-07T04:00:06.649Z,100708.98
2023-01-07T04:01:10.811Z,100715.91
2023-01-07T04:02:13.203Z,100713.67
2023-01-07T04:03:15.533Z,100709.73
2023-01-07T04:04:20.017Z,100709.44
2023-01-07T04:05:23.065Z,100707.11
2023-01-07T04:06:25.735Z,100715.69
2023-01-07T04:07:29.028Z,100714.94
2023-01-07T04:08:32.329Z,100707.52
2023-01-07T04:09:34.540Z,100718.69
2023-01-07T04:10:36.663Z,100723.44
2023-01-07T04:11:39.184Z,100729.09
2023-01-07T04:12:41.911Z,100726.66
2023-01-07T04:13:46.176Z,100722.52
2023-01-07T04:14:48.296Z,100723.66
2023-01-07T04:15:50.275Z,100729.05
2023-01-07T04:16:53.170Z,100727.22
2023-01-07T04:17:55.201Z,100730.21
2023-01-07T04:18:57.892Z,100733.58
2023-01-07T04:20:00.653Z,100731.72
2023-01-07T04:21:04.308Z,100739.45
2023-01-07T04:22:09.287Z,100744.84
2023-01-07T04:23:11.636Z,100741.85
2023-01-07T04:24:14.134Z,100740.61
2023-01-07T04:25:17.390Z,100742.44
2023-01-07T04:26:20.858Z,100742.44
2023-01-07T04:27:23.353Z,100742.53
2023-01-07T04:28:25.641Z,100741.19
2023-01-07T04:29:28.308Z,100733.94
2023-01-07T04:30:32.662Z,100737.50
2023-01-07T04:31:35.310Z,100743.47
2023-01-07T04:32:40.264Z,100751.42
2023-01-07T04:33:43.593Z,100745.67
2023-01-07T04:34:46.063Z,100741.67
2023-01-07T04:35:48.136Z,100751.06
2023-01-07T04:36:51.516Z,100745.77
2023-01-07T04:37:54.186Z,100748.26
2023-01-07T04:38:56.299Z,100744.04
2023-01-07T04:39:58.192Z,100743.45
2023-01-07T04:41:00.860Z,100743.50
2023-01-07T04:42:02.902Z,100741.85
2023-01-07T04:43:05.545Z,100743.75
2023-01-07T04:44:08.082Z,100748.16
2023-01-07T04:45:11.288Z,100751.63
2023-01-07T04:46:14.120Z,100748.16
2023-01-07T04:47:16.181Z,100749.84
2023-01-07T04:48:18.566Z,100748.12
2023-01-07T04:49:20.795Z,100750.97
2023-01-07T04:50:24.533Z,100752.63
2023-01-07T04:51:27.092Z,100754.88
2023-01-07T04:52:29.291Z,100753.15
2023-01-07T04:53:31.614Z,100762.00
2023-01-07T04:54:35.037Z,100750.56
2023-01-07T04:55:38.400Z,100758.44
2023-01-07T04:56:41.719Z,100758.44
2023-01-07T04:57:44.082Z,100757.98
2023-01-07T04:58:48.114Z,100761.12
2023-01-07T04:59:50.793Z,100763.52
2023-01-07T05:00:54.844Z,100763.52
2023-01-07T05:01:57.795Z,100766.41
2023-01-07T05:03:01.400Z,100761.69
2023-01-07T05:04:03.975Z,100755.91
2023-01-07T05:05:08.236Z,100759.37
2023-01-07T05:06:11.004Z,100758.45
2023-01-07T05:07:13.999Z,100756.13
2023-01-07T05:08:16.634Z,100753.77
2023-01-07T05:09:20.576Z,100756.48
2023-01-07T05:10:22.959Z,100753.72
2023-01-07T05:11:26.474Z,100762.13
2023-01-07T05:12:34.960Z,100757.99
2023-01-07T05:13:37.711Z,100756.35
2023-01-07T05:14:40.214Z,100756.67
2023-01-07T05:15:42.265Z,100752.22
2023-01-07T05:16:46.406Z,100760.41
2023-01-07T05:17:48.532Z,100763.73
2023-01-07T05:18:51.365Z,100754.36
2023-01-07T05:19:54.182Z,100755.02
2023-01-07T05:20:56.604Z,100765.62
2023-01-07T05:22:00.636Z,100762.98
2023-01-07T05:23:05.163Z,100754.07
2023-01-07T05:24:08.848Z,100767.31
2023-01-07T05:25:11.719Z,100767.31
2023-01-07T05:26:14.889Z,100760.88
2023-01-07T05:27:17.590Z,100769.66
2023-01-07T05:28:19.946Z,100769.52
2023-01-07T05:29:24.311Z,100777.12
2023-01-07T05:30:27.382Z,100769.89
2023-01-07T05:31:29.997Z,100772.75
2023-01-07T05:32:32.112Z,100777.11
2023-01-07T05:33:34.337Z,100781.48
2023-01-07T05:34:38.268Z,100787.61
2023-01-07T05:35:40.536Z,100783.34
2023-01-07T05:36:43.055Z,100783.34
2023-01-07T05:37:45.991Z,100784.38
2023-01-07T05:38:48.473Z,100781.89
2023-01-07T05:39:50.583Z,100789.67
2023-01-07T05:40:54.189Z,100789.80
2023-01-07T05:41:58.956Z,100790.72
2023-01-07T05:43:01.410Z,100790.72
2023-01-07T05:44:05.101Z,100800.29
2023-01-07T05:45:08.844Z,100797.75
2023-01-07T05:46:11.423Z,100794.52
2023-01-07T05:47:13.847Z,100803.28
2023-01-07T05:48:15.833Z,100797.18
2023-01-07T05:49:17.873Z,100802.98
2023-01-07T05:50:19.976Z,100791.84
2023-01-07T05:51:22.403Z,100804.51
2023-01-07T05:52:25.387Z,100800.34
2023-01-07T05:53:27.601Z,100804.51
2023-01-07T05:54:29.543Z,100810.46
2023-01-07T05:55:31.664Z,100813.15
2023-01-07T05:56:33.949Z,100823.28
2023-01-07T05:57:36.150Z,100807.47
2023-01-07T05:58:38.249Z,100813.15
2023-01-07T05:59:40.445Z,100824.91
2023-01-07T06:00:43.105Z,100815.33
2023-01-07T06:01:47.492Z,100814.78
2023-01-07T06:02:49.875Z,100823.66
2023-01-07T06:03:52.029Z,100820.77
2023-01-07T06:04:54.124Z,100822.64
2023-01-07T06:05:56.185Z,100828.04
2023-01-07T06:06:58.270Z,100828.73
2023-01-07T06:08:00.199Z,100837.27
2023-01-07T06:09:02.650Z,100833.18
2023-01-07T06:10:06.788Z,100835.88
2023-01-07T06:11:09.250Z,100831.78
2023-01-07T06:12:11.416Z,100839.30
2023-01-07T06:13:13.721Z,100846.11
2023-01-07T06:14:16.407Z,100837.01
2023-01-07T06:15:18.538Z,100844.70
2023-01-07T06:16:20.655Z,100841.04
2023-01-07T06:17:23.874Z,100840.55
2023-01-07T06:18:26.376Z,100843.08
2023-01-07T06:19:28.371Z,100843.69
2023-01-07T06:20:32.363Z,100843.80
2023-01-07T06:21:34.983Z,100848.02
2023-01-07T06:22:37.480Z,100846.53
2023-01-07T06:23:39.790Z,100846.91
2023-01-07T06:24:41.885Z,100853.95
2023-01-07T06:25:43.804Z,100848.06
2023-01-07T06:26:45.856Z,100844.06
2023-01-07T06:27:47.771Z,100842.56
2023-01-07T06:28:51.860Z,100847.50
2023-01-07T06:29:54.000Z,100857.53
2023-01-07T06:30:56.647Z,100851.48
2023-01-07T06:31:59.124Z,100859.27
2023-01-07T06:33:01.255Z,100855.50
2023-01-07T06:34:03.701Z,100852.77
2023-01-07T06:35:08.532Z,100851.08
2023-01-07T06:36:11.396Z,100850.37
2023-01-07T06:37:15.487Z,100856.62
2023-01-07T06:38:17.863Z,100844.13
2023-01-07T06:39:19.910Z,100857.66
2023-01-07T06:40:22.418Z,100854.55
2023-01-07T06:41:24.642Z,100845.50
2023-01-07T06:42:27.490Z,100845.11
2023-01-07T06:43:30.225Z,100860.65
2023-01-07T06:44:34.367Z,100858.36
2023-01-07T06:45:41.280Z,100863.66
2023-01-07T06:46:42.545Z,100848.69
2023-01-07T06:47:45.223Z,100860.80
2023-01-07T06:48:47.248Z,100862.76
2023-01-07T06:49:49.230Z,100861.69
2023-01-07T06:50:52.546Z,100864.13
2023-01-07T06:51:54.706Z,100865.39
2023-01-07T06:52:56.951Z,100863.89
2023-01-07T06:53:59.429Z,100863.25
2023-01-07T06:55:01.857Z,100866.90
2023-01-07T06:56:04.686Z,100867.65
2023-01-07T06:57:06.691Z,100864.36
2023-01-07T06:58:08.849Z,100861.88
2023-01-07T06:59:10.955Z,100864.59
2023-01-07T07:00:14.623Z,100864.59
2023-01-07T07:01:16.986Z,100869.89
2023-01-07T07:02:24.523Z,100873.59
2023-01-07T07:03:27.134Z,100882.23
2023-01-07T07:04:29.353Z,100879.82
2023-01-07T07:05:31.856Z,100877.55
2023-01-07T07:06:34.078Z,100879.34
2023-01-07T07:07:36.749Z,100883.66
2023-01-07T07:08:38.649Z,100877.51
2023-01-07T07:09:40.599Z,100877.81
2023-01-07T07:10:42.704Z,100877.09
2023-01-07T07:11:44.958Z,100878.87
2023-01-07T07:12:46.967Z,100889.33
2023-01-07T07:13:49.492Z,100886.91
2023-01-07T07:14:51.874Z,100886.95
2023-01-07T07:15:54.170Z,100892.44
2023-01-07T07:16:57.451Z,100895.88
2023-01-07T07:17:59.661Z,100903.47
2023-01-07T07:19:01.597Z,100900.56
2023-01-07T07:20:04.392Z,100901.21
2023-01-07T07:21:06.720Z,100896.30
2023-01-07T07:22:08.830Z,100903.74
2023-01-07T07:23:11.449Z,100893.56
2023-01-07T07:24:13.643Z,100908.16
2023-01-07T07:25:16.372Z,100907.42
2023-01-07T07:26:18.749Z,100920.13
2023-01-07T07:27:22.890Z,100910.69
2023-01-07T07:28:25.112Z,100921.72
2023-01-07T07:29:27.029Z,100915.75
2023-01-07T07:30:45.524Z,100925.08
2023-01-07T07:31:33.697Z,100925.08
2023-01-07T07:32:35.989Z,100923.45
2023-01-07T07:33:38.299Z,100925.93
2023-01-07T07:34:41.560Z,100923.61
2023-01-07T07:35:45.557Z,100920.28
2023-01-07T07:36:47.798Z,100919.61
2023-01-07T07:37:50.139Z,100923.20
2023-01-07T07:38:52.606Z,100922.41
2023-01-07T07:39:54.591Z,100919.88
2023-01-07T07:40:56.510Z,100928.94
2023-01-07T07:42:00.826Z,100925.73
2023-01-07T07:43:11.821Z,100931.41
2023-01-07T07:44:09.127Z,100941.65
2023-01-07T07:45:11.388Z,100932.41
2023-01-07T07:46:14.504Z,100946.71
2023-01-07T07:47:17.775Z,100935.73
2023-01-07T07:48:19.931Z,100932.11
2023-01-07T07:49:22.474Z,100934.63
2023-01-07T07:50:24.675Z,100944.34
2023-01-07T07:51:26.492Z,100937.55
2023-01-07T07:52:28.305Z,100945.20
2023-01-07T07:53:30.619Z,100930.91
2023-01-07T07:54:33.108Z,100934.08
2023-01-07T07:55:41.089Z,100943.06
2023-01-07T07:56:44.471Z,100940.32
2023-01-07T07:57:47.653Z,100937.19
2023-01-07T07:58:49.986Z,100935.81
2023-01-07T07:59:51.923Z,100941.94
2023-01-07T08:00:53.983Z,100953.13
2023-01-07T08:01:56.575Z,100949.28
2023-01-07T08:02:59.865Z,100934.10
2023-01-07T08:04:01.968Z,100940.90
2023-01-07T08:05:04.532Z,100952.13
2023-01-07T08:06:07.281Z,100947.27
2023-01-07T08:07:11.189Z,100938.09
2023-01-07T08:08:14.705Z,100951.55
2023-01-07T08:09:16.904Z,100947.55
2023-01-07T08:10:20.999Z,100947.85
2023-01-07T08:11:23.296Z,100949.07
2023-01-07T08:12:25.302Z,100954.77
2023-01-07T08:13:27.352Z,100951.22
2023-01-07T08:14:29.619Z,100941.45
2023-01-07T08:15:31.826Z,100944.53
2023-01-07T08:16:34.564Z,100941.70
2023-01-07T08:17:37.677Z,100942.23
2023-01-07T08:18:40.400Z,100944.39
2023-01-07T08:19:42.410Z,100939.80
2023-01-07T08:20:45.131Z,100944.86
2023-01-07T08:21:49.706Z,100947.17
2023-01-07T08:22:51.872Z,100941.38
2023-01-07T08:23:53.905Z,100944.22
2023-01-07T08:24:56.071Z,100943.95
2023-01-07T08:26:01.272Z,100942.48
2023-01-07T08:27:03.502Z,100951.97
2023-01-07T08:28:05.951Z,100950.38
2023-01-07T08:29:08.266Z,100948.97
2023-01-07T08:30:11.772Z,100948.39
2023-01-07T08:31:16.131Z,100952.13
2023-01-07T08:32:21.033Z,100954.36
2023-01-07T08:33:23.938Z,100956.25
2023-01-07T08:34:26.818Z,100954.78
2023-01-07T08:35:29.314Z,100948.25
2023-01-07T08:36:31.453Z,100955.19
2023-01-07T08:37:33.499Z,100954.40
2023-01-07T08:38:35.915Z,100950.25
2023-01-07T08:39:37.988Z,100955.77
2023-01-07T08:40:40.405Z,100955.77
2023-01-07T08:41:42.330Z,100952.65
2023-01-07T08:42:44.329Z,100943.85
2023-01-07T08:43:46.719Z,100940.27
2023-01-07T08:44:49.523Z,100940.27
2023-01-07T08:45:52.505Z,100956.13
2023-01-07T08:46:55.516Z,100950.31
2023-01-07T08:47:58.289Z,100951.68
2023-01-07T08:49:00.762Z,100958.23
2023-01-07T08:50:03.779Z,100954.90
2023-01-07T08:51:06.841Z,100941.49
2023-01-07T08:52:09.081Z,100946.56
2023-01-07T08:53:11.158Z,100948.61
2023-01-07T08:54:13.451Z,100948.61
2023-01-07T08:55:15.662Z,100949.48
2023-01-07T08:56:17.867Z,100950.34
2023-01-07T08:57:20.051Z,100943.67
2023-01-07T08:58:21.982Z,100940.45
2023-01-07T08:59:24.033Z,100943.34
2023-01-07T09:00:27.081Z,100949.60
2023-01-07T09:01:29.458Z,100941.55
2023-01-07T09:02:31.727Z,100945.02
2023-01-07T09:03:34.675Z,100942.90
2023-01-07T09:04:37.816Z,100941.91
2023-01-07T09:05:40.076Z,100936.55
2023-01-07T09:06:42.781Z,100944.14
2023-01-07T09:07:44.833Z,100940.67
2023-01-07T09:08:47.081Z,100941.06
2023-01-07T09:09:50.077Z,100943.28
2023-01-07T09:10:52.756Z,100932.20
2023-01-07T09:11:55.121Z,100938.45
2023-01-07T09:12:57.410Z,100940.88
2023-01-07T09:13:59.514Z,100928.81
2023-01-07T09:15:03.275Z,100934.98
2023-01-07T09:16:06.989Z,100934.98
2023-01-07T09:17:10.501Z,100926.47
2023-01-07T09:18:12.416Z,100929.25
2023-01-07T09:19:14.520Z,100929.30
2023-01-07T09:20:17.335Z,100930.42
2023-01-07T09:21:19.427Z,100930.84
2023-01-07T09:22:21.585Z,100928.45
2023-01-07T09:23:23.629Z,100927.80
2023-01-07T09:24:25.761Z,100927.19
2023-01-07T09:25:27.763Z,100933.99
2023-01-07T09:26:30.703Z,100934.74
2023-01-07T09:27:33.904Z,100940.56
2023-01-07T09:28:36.328Z,100932.58
2023-01-07T09:29:38.523Z,100928.92
2023-01-07T09:30:41.640Z,100934.73
2023-01-07T09:31:43.910Z,100922.86
2023-01-07T09:32:46.994Z,100926.89
2023-01-07T09:33:54.072Z,100922.63
2023-01-07T09:34:56.268Z,100923.42
2023-01-07T09:35:58.679Z,100922.52
2023-01-07T09:37:01.393Z,100914.72
2023-01-07T09:38:04.768Z,100918.94
2023-01-07T09:39:08.213Z,100923.46
2023-01-07T09:41:59.984Z,100919.29
2023-01-07T09:43:24.771Z,100918.93
2023-01-07T09:44:47.697Z,100915.59
2023-01-07T09:45:53.435Z,100915.25
2023-01-07T09:46:57.010Z,100913.80
2023-01-07T09:48:02.816Z,100920.06
2023-01-07T09:49:07.897Z,100916.14
2023-01-07T09:50:20.081Z,100922.37
2023-01-07T09:51:39.500Z,100920.23
2023-01-07T09:52:47.301Z,100918.95
2023-01-07T09:53:57.628Z,100920.19
2023-01-07T09:55:25.083Z,100916.41
2023-01-07T09:56:29.898Z,100919.23
2023-01-07T09:57:33.099Z,100917.31
2023-01-07T09:58:37.880Z,100910.98
2023-01-07T09:59:39.554Z,100916.13
2023-01-07T12:01:13.834Z,100922.88
2023-01-07T12:02:25.993Z,100923.41
2023-01-07T12:03:28.763Z,100923.77
2023-01-07T12:04:33.311Z,100932.35
2023-01-07T12:05:37.757Z,100932.50
2023-01-07T12:06:43.965Z,100929.28
2023-01-07T12:07:49.106Z,100926.16
2023-01-07T12:08:58.087Z,100931.87
2023-01-07T12:10:00.757Z,100930.22
2023-01-07T12:11:09.884Z,100940.01
2023-01-07T12:12:31.064Z,100926.55
2023-01-07T12:13:33.790Z,100938.00
2023-01-07T12:14:38.762Z,100930.72
2023-01-07T12:17:18.604Z,100939.78
2023-01-07T12:18:28.217Z,100937.70
2023-01-07T12:19:40.073Z,100934.28
2023-01-07T12:21:03.978Z,100942.06
2023-01-07T12:22:15.484Z,100940.23
2023-01-07T12:23:28.404Z,100928.98
2023-01-07T12:24:34.412Z,100946.98
2023-01-07T12:27:15.103Z,100946.20
2023-01-07T12:28:35.687Z,100948.87
2023-01-07T12:29:53.496Z,100948.55
2023-01-07T12:31:22.569Z,100951.97
2023-01-07T12:32:40.641Z,100943.67
2023-01-07T12:33:58.680Z,100941.89
2023-01-07T12:35:14.649Z,100936.01
2023-01-07T12:36:30.595Z,100936.01
2023-01-07T12:37:39.846Z,100932.66
2023-01-07T12:38:45.680Z,100932.45
2023-01-07T12:39:53.762Z,100932.45
2023-01-07T12:40:59.344Z,100941.00
2023-01-07T12:42:17.432Z,100940.88
2023-01-07T12:43:38.585Z,100945.84
2023-01-07T12:44:50.420Z,100945.52
2023-01-07T12:45:56.215Z,100947.13
2023-01-07T12:47:32.506Z,100944.55
2023-01-07T12:48:18.609Z,100941.71
2023-01-07T12:49:27.572Z,100942.42
2023-01-07T12:50:42.590Z,100944.83
2023-01-07T12:54:44.477Z,100942.65
2023-01-07T12:55:59.603Z,100944.61
2023-01-07T12:58:41.531Z,100948.65
2023-01-07T12:59:50.457Z,100949.06
2023-01-07T13:00:59.388Z,100956.72
2023-01-07T13:02:36.344Z,100950.16
2023-01-07T13:04:08.162Z,100959.48
2023-01-07T13:05:30.689Z,100961.34
2023-01-07T13:06:36.506Z,100954.66
2023-01-07T13:08:16.084Z,100956.31
2023-01-07T13:09:24.817Z,100955.69
2023-01-07T13:10:45.222Z,100960.98
2023-01-07T13:12:41.231Z,100957.63
2023-01-07T13:13:33.530Z,100950.11
2023-01-07T13:14:42.137Z,100951.16
2023-01-07T13:15:44.206Z,100948.83
2023-01-07T13:16:46.875Z,100961.75
2023-01-07T13:17:50.827Z,100953.53
2023-01-07T13:18:53.329Z,100960.48
2023-01-07T13:19:56.219Z,100960.56
2023-01-07T13:21:16.990Z,100959.03
2023-01-07T13:22:28.795Z,100956.86
2023-01-07T13:23:50.813Z,100953.55
2023-01-07T13:25:07.380Z,100957.91
2023-01-07T13:26:32.677Z,100956.30
2023-01-07T13:27:41.824Z,100954.56
2023-01-07T13:29:04.338Z,100952.83
2023-01-07T13:30:26.145Z,100956.50
2023-01-07T13:31:43.032Z,100949.48
2023-01-07T13:32:48.918Z,100947.54
2023-01-07T13:34:10.104Z,100947.77
2023-01-07T13:35:31.246Z,100947.14
2023-01-07T13:37:12.193Z,100946.81
2023-01-07T13:38:50.222Z,100952.55
2023-01-07T13:40:08.209Z,100955.69
2023-01-07T13:41:43.320Z,100955.46
2023-01-07T13:43:14.609Z,100951.87
2023-01-07T13:44:20.311Z,100965.98
2023-01-07T13:45:38.881Z,100967.59
2023-01-07T13:46:43.947Z,100975.20
2023-01-07T13:47:52.167Z,100965.05
2023-01-07T13:48:54.935Z,100966.66
2023-01-07T13:50:00.093Z,100968.87
2023-01-07T13:51:05.708Z,100968.87
2023-01-07T13:52:19.868Z,100974.56
2023-01-07T13:53:29.129Z,100964.47
2023-01-07T13:54:53.054Z,100966.20
2023-01-07T13:55:58.860Z,100967.80
2023-01-07T13:57:05.563Z,100957.55
2023-01-07T13:58:45.804Z,100968.45
2023-01-07T13:59:49.211Z,100963.30
2023-01-07T14:01:14.848Z,100969.93
2023-01-07T14:02:50.472Z,100965.61
2023-01-07T14:03:54.293Z,100978.01
2023-01-07T14:05:15.093Z,100971.20
2023-01-07T14:06:25.901Z,100974.62
2023-01-07T14:07:28.658Z,100975.23
2023-01-07T14:08:32.150Z,100971.66
2023-01-07T14:09:37.311Z,100972.27
2023-01-07T14:10:39.600Z,100965.52
2023-01-07T14:12:02.481Z,100963.78
2023-01-07T14:13:17.786Z,100976.41
2023-01-07T14:14:38.814Z,100967.77
2023-01-07T14:15:45.801Z,100971.00
2023-01-07T14:17:03.522Z,100975.98
2023-01-07T14:18:30.907Z,100978.41
2023-01-07T14:19:40.657Z,100976.48
2023-01-07T14:20:49.391Z,100977.17
2023-01-07T14:22:10.253Z,100974.55
2023-01-07T14:23:38.544Z,100982.85
2023-01-07T14:25:08.554Z,100980.38
2023-01-07T14:26:33.265Z,100987.07
2023-01-07T14:27:48.498Z,100991.06
2023-01-07T14:28:57.044Z,100997.81
2023-01-07T14:30:15.959Z,100996.08
2023-01-07T14:31:25.427Z,100991.94
2023-01-07T14:32:32.157Z,100996.13
2023-01-07T14:33:41.375Z,100995.22
2023-01-07T14:34:55.666Z,100996.08
2023-01-07T14:36:09.621Z,101001.20
2023-01-07T14:37:17.540Z,101006.27
2023-01-07T14:38:36.037Z,101007.70
2023-01-07T14:39:41.516Z,101002.58
2023-01-07T14:40:47.614Z,101007.50
2023-01-07T14:42:27.331Z,101008.30
2023-01-07T14:43:46.016Z,101012.56
2023-01-07T14:44:50.672Z,101011.77
2023-01-07T14:45:54.381Z,101007.45
2023-01-07T14:46:57.875Z,101013.37
2023-01-07T14:48:00.154Z,101010.17
2023-01-07T14:49:05.926Z,101011.77
2023-01-07T14:50:29.405Z,101012.52
2023-01-07T14:51:59.506Z,101019.06